首页
METAR-TAF:

METAR-TAF

机场 :

North Myrtle Beach, 南卡罗来纳州, 美国

纬度: 33-48-42N, 经度: 078-43-26W, 海拔: 10米

当前天气观测

该预报发布于31分钟前的15:53 UTC
风速10节,风向
温度 27°C
湿度 79%
气压 1017 hPa
能見度: 16.1公里
少量云层高于2900英尺
少量云层高于9000英尺

METAR: KCRE 051553Z 19010KT 10SM FEW029 FEW090 27/23 A3002 RMK AO1 SLP167 T02720228

时间: 12:24 (16:24 UTC)

预报

该预报发布于4小时和45分钟前的11:39 UTC
预报有效从05日的 12点(UTC)到 06日的 12点(UTC)
风速8节,风向
能見度: 10公里
多云层高于1500英尺
多云层高于5000英尺
从 05日的 1700点(UTC)
风速11节,风向,有时为21节阵风
能見度: 10公里
多云层高于4000英尺, 积雨云.
附近有雷暴
从 05日的 2000点(UTC)
风速12节,风向,有时为20节阵风
能見度: 10公里
多云层高于8000英尺
从 05日的 2300点(UTC)
风速10节,风向南转西南,有时为20节阵风
能見度: 10公里
多云层高于10000英尺
从 06日的 0300点(UTC)
风速9节,风向西南
能見度: 10公里
多云层高于10000英尺

TAF: KCRE 051139Z 0512/0612 19008KT P6SM BKN015 BKN050 FM051700 19011G21KT P6SM VCTS BKN040CB FM052000 19012G20KT P6SM BKN080 FM052300 20010G20KT P6SM BKN100 FM060300 22009KT P6SM BKN100

超过4000个机场的气象观测和天气预报(METAR&TAF报告)。

可查询的气象台以黄色和红色小点在地图上表示。

将鼠标移到小点上方,可查看气象台名称。

然后点击查看天气观测和预报。

如需切换地图:点击带黑十字的绿色按钮放大地图;点击带横线的绿色按钮缩小地图;或者点击绿色箭头查看邻近地区的地图。


METAR-TAF: